createdAt,value
2023-03-14T00:01:22.317Z,7.57
2023-03-14T00:03:50.576Z,7.52
2023-03-14T00:06:19.457Z,7.51
2023-03-14T00:08:47.440Z,7.49
2023-03-14T00:11:21.921Z,7.50
2023-03-14T00:13:52.041Z,7.51
2023-03-14T00:16:20.660Z,7.50
2023-03-14T00:18:48.707Z,7.50
2023-03-14T00:21:16.896Z,7.49
2023-03-14T00:23:45.033Z,7.49
2023-03-14T00:26:18.653Z,7.49
2023-03-14T00:28:46.508Z,7.50
2023-03-14T00:31:17.241Z,7.51
2023-03-14T00:33:46.476Z,7.52
2023-03-14T00:36:19.049Z,7.55
2023-03-14T00:38:48.480Z,7.58
2023-03-14T00:41:18.934Z,7.58
2023-03-14T00:43:46.685Z,7.58
2023-03-14T00:46:15.162Z,7.58
2023-03-14T00:48:42.942Z,7.58
2023-03-14T00:51:10.994Z,7.57
2023-03-14T00:53:40.428Z,7.55
2023-03-14T00:56:10.887Z,7.54
2023-03-14T00:58:38.736Z,7.50
2023-03-14T01:01:17.039Z,7.50
2023-03-14T01:03:44.794Z,7.47
2023-03-14T01:06:22.020Z,7.45
2023-03-14T01:08:50.074Z,7.43
2023-03-14T01:11:24.180Z,7.45
2023-03-14T01:13:52.085Z,7.45
2023-03-14T01:16:21.618Z,7.45
2023-03-14T01:18:50.000Z,7.46
2023-03-14T01:21:29.799Z,7.47
2023-03-14T01:24:00.172Z,7.47
2023-03-14T01:26:31.220Z,7.50
2023-03-14T01:28:59.577Z,7.49
2023-03-14T01:31:28.411Z,7.49
2023-03-14T01:33:56.453Z,7.51
2023-03-14T01:36:24.149Z,7.53
2023-03-14T01:38:51.836Z,7.53
2023-03-14T01:41:27.934Z,7.53
2023-03-14T01:43:55.902Z,7.53
2023-03-14T01:46:31.621Z,7.54
2023-03-14T01:49:05.834Z,7.57
2023-03-14T01:51:58.765Z,7.59
2023-03-14T01:54:43.871Z,7.60
2023-03-14T01:57:19.824Z,7.61
2023-03-14T01:59:56.597Z,7.60
2023-03-14T02:02:28.370Z,7.62
2023-03-14T02:04:58.565Z,7.63
2023-03-14T02:07:43.108Z,7.61
2023-03-14T02:10:12.215Z,7.64
2023-03-14T02:12:40.965Z,7.64
2023-03-14T02:15:09.348Z,7.65
2023-03-14T02:17:37.705Z,7.66
2023-03-14T02:20:11.603Z,7.66
2023-03-14T02:22:42.470Z,7.67
2023-03-14T02:25:25.350Z,7.68
2023-03-14T02:27:53.166Z,7.70
2023-03-14T02:30:24.757Z,7.70
2023-03-14T02:32:57.684Z,7.71
2023-03-14T02:35:29.098Z,7.71
2023-03-14T02:38:23.211Z,7.71
2023-03-14T02:40:51.183Z,7.72
2023-03-14T02:43:19.024Z,7.71
2023-03-14T02:45:49.093Z,7.70
2023-03-14T02:48:27.069Z,7.70
2023-03-14T02:50:58.620Z,7.72
2023-03-14T02:53:36.090Z,7.70
2023-03-14T02:56:03.856Z,7.70
2023-03-14T02:58:32.448Z,7.69
2023-03-14T03:01:00.270Z,7.70
2023-03-14T03:03:27.928Z,7.67
2023-03-14T03:05:57.889Z,7.68
2023-03-14T03:08:28.511Z,7.67
2023-03-14T03:10:56.342Z,7.66
2023-03-14T03:13:24.034Z,7.66
2023-03-14T03:15:51.799Z,7.69
2023-03-14T03:18:19.533Z,7.71
2023-03-14T03:20:47.905Z,7.72
2023-03-14T03:23:15.732Z,7.72
2023-03-14T03:25:43.501Z,7.74
2023-03-14T03:28:11.200Z,7.72
2023-03-14T03:30:42.671Z,7.75
2023-03-14T03:33:11.183Z,7.74
2023-03-14T03:35:50.670Z,7.77
2023-03-14T03:38:19.023Z,7.75
2023-03-14T03:40:46.663Z,7.78
2023-03-14T03:43:14.482Z,7.78
2023-03-14T03:45:42.413Z,7.80
2023-03-14T03:48:10.100Z,7.80
2023-03-14T03:50:37.810Z,7.81
2023-03-14T03:53:05.608Z,7.81
2023-03-14T03:55:33.275Z,7.83
2023-03-14T03:58:00.923Z,7.85
2023-03-14T04:00:28.722Z,7.87
2023-03-14T04:02:56.453Z,7.84
2023-03-14T04:05:24.318Z,7.86
2023-03-14T04:07:52.031Z,7.85
2023-03-14T04:10:19.730Z,7.84
2023-03-14T04:12:47.531Z,7.85
2023-03-14T04:15:15.241Z,7.86
2023-03-14T04:17:43.298Z,7.85
2023-03-14T04:20:14.652Z,7.84
2023-03-14T04:22:44.549Z,7.85
2023-03-14T04:25:12.578Z,7.85
2023-03-14T04:27:40.322Z,7.87
2023-03-14T04:30:08.686Z,7.85
2023-03-14T04:32:36.416Z,7.83
2023-03-14T04:35:04.180Z,7.84
2023-03-14T04:37:31.853Z,7.83
2023-03-14T04:39:59.532Z,7.82
2023-03-14T04:42:27.189Z,7.82
2023-03-14T04:44:55.066Z,7.83
2023-03-14T04:47:22.783Z,7.84
2023-03-14T04:49:50.535Z,7.84
2023-03-14T04:52:18.324Z,7.83
2023-03-14T04:54:45.993Z,7.82
2023-03-14T04:57:13.742Z,7.82
2023-03-14T04:59:41.376Z,7.82
2023-03-14T05:02:09.050Z,7.82
2023-03-14T05:04:36.837Z,7.81
2023-03-14T05:07:04.766Z,7.81
2023-03-14T05:09:32.492Z,7.80
2023-03-14T05:12:00.336Z,7.81
2023-03-14T05:14:28.045Z,7.81
2023-03-14T05:16:55.686Z,7.81
2023-03-14T05:19:23.529Z,7.81
2023-03-14T05:21:51.301Z,7.79
2023-03-14T05:24:19.006Z,7.81
2023-03-14T05:26:46.744Z,7.82
2023-03-14T05:29:14.418Z,7.82
2023-03-14T05:31:42.175Z,7.82
2023-03-14T05:34:09.886Z,7.82
2023-03-14T05:36:37.628Z,7.82
2023-03-14T05:39:05.380Z,7.79
2023-03-14T05:41:33.131Z,7.81
2023-03-14T05:44:00.840Z,7.78
2023-03-14T05:46:28.553Z,7.78
2023-03-14T05:48:56.290Z,7.80
2023-03-14T05:51:23.932Z,7.78
2023-03-14T05:53:51.784Z,7.78
2023-03-14T05:56:19.797Z,7.80
2023-03-14T05:58:47.509Z,7.78
2023-03-14T06:01:15.160Z,7.77
2023-03-14T06:03:42.903Z,7.78
2023-03-14T06:06:10.703Z,7.76
2023-03-14T06:08:38.329Z,7.74
2023-03-14T06:11:06.524Z,7.77
2023-03-14T06:13:34.262Z,7.77
2023-03-14T06:16:01.891Z,7.77
2023-03-14T06:18:29.786Z,7.78
2023-03-14T06:20:57.941Z,7.76
2023-03-14T06:23:25.861Z,7.78
2023-03-14T06:25:53.844Z,7.78
2023-03-14T06:28:21.555Z,7.80
2023-03-14T06:30:49.292Z,7.81
2023-03-14T06:33:17.143Z,7.81
2023-03-14T06:35:44.838Z,7.80
2023-03-14T06:38:12.630Z,7.80
2023-03-14T06:40:40.467Z,7.81
2023-03-14T06:43:08.305Z,7.83
2023-03-14T06:45:35.995Z,7.84
2023-03-14T06:48:03.734Z,7.88
2023-03-14T06:50:31.520Z,7.88
2023-03-14T06:52:59.249Z,7.92
2023-03-14T06:55:28.255Z,7.94
2023-03-14T06:57:56.005Z,7.98
2023-03-14T07:00:24.116Z,8.00
2023-03-14T07:02:51.849Z,8.03
2023-03-14T07:05:19.541Z,8.04
2023-03-14T07:07:47.292Z,8.05
2023-03-14T07:10:15.090Z,8.08
2023-03-14T07:12:42.700Z,8.12
2023-03-14T07:15:18.673Z,8.17
2023-03-14T07:17:47.096Z,8.22
2023-03-14T07:20:14.949Z,8.25
2023-03-14T07:22:42.698Z,8.33
2023-03-14T07:25:13.852Z,8.35
2023-03-14T07:27:41.532Z,8.36
2023-03-14T07:30:09.722Z,8.36
2023-03-14T07:32:37.405Z,8.39
2023-03-14T07:35:05.866Z,8.41
2023-03-14T07:37:33.586Z,8.44
2023-03-14T07:40:01.342Z,8.44
2023-03-14T07:42:29.154Z,8.49
2023-03-14T07:44:56.845Z,8.51
2023-03-14T07:47:24.580Z,8.50
2023-03-14T07:49:52.241Z,8.51
2023-03-14T07:52:19.987Z,8.54
2023-03-14T07:54:47.817Z,8.59
2023-03-14T07:57:15.579Z,8.63
2023-03-14T07:59:43.261Z,8.71
2023-03-14T08:02:14.111Z,8.73
2023-03-14T08:04:42.718Z,8.75
2023-03-14T08:07:10.469Z,8.82
2023-03-14T08:09:38.187Z,8.85
2023-03-14T08:12:06.086Z,8.92
2023-03-14T08:14:33.961Z,8.96
2023-03-14T08:17:01.657Z,8.96
2023-03-14T08:19:29.662Z,8.98
2023-03-14T08:21:57.484Z,9.01
2023-03-14T08:24:25.148Z,9.37
2023-03-14T08:26:53.044Z,9.97
2023-03-14T08:29:20.812Z,10.50
2023-03-14T08:31:48.628Z,10.99
2023-03-14T08:34:16.656Z,10.99
2023-03-14T08:36:44.621Z,10.81
2023-03-14T08:39:12.413Z,10.66
2023-03-14T08:41:43.149Z,10.50
2023-03-14T08:44:11.726Z,10.39
2023-03-14T08:46:39.781Z,10.30
2023-03-14T08:49:07.759Z,10.24
2023-03-14T08:51:35.671Z,10.24
2023-03-14T08:54:03.476Z,10.17
2023-03-14T08:56:31.289Z,10.14
2023-03-14T08:58:59.336Z,10.14
2023-03-14T09:01:28.354Z,10.14
2023-03-14T09:03:56.074Z,10.19
2023-03-14T09:06:24.120Z,10.23
2023-03-14T09:08:52.100Z,10.22
2023-03-14T09:11:20.808Z,10.32
2023-03-14T09:13:48.724Z,10.39
2023-03-14T09:16:16.552Z,10.36
2023-03-14T09:18:44.483Z,10.39
2023-03-14T09:21:12.692Z,10.44
2023-03-14T09:23:41.968Z,10.49
2023-03-14T09:26:10.155Z,10.60
2023-03-14T09:28:38.223Z,10.72
2023-03-14T09:31:11.034Z,10.83
2023-03-14T09:33:40.067Z,10.95
2023-03-14T09:36:09.752Z,11.00
2023-03-14T09:38:37.613Z,11.03
2023-03-14T09:41:19.838Z,11.08
2023-03-14T09:43:50.541Z,11.08
2023-03-14T09:46:18.309Z,11.10
2023-03-14T09:48:46.336Z,11.18
2023-03-14T09:51:18.896Z,11.13
2023-03-14T09:53:49.713Z,11.14
2023-03-14T09:56:28.945Z,11.19
2023-03-14T09:59:03.077Z,11.24
2023-03-14T10:01:33.652Z,11.35
2023-03-14T10:04:17.352Z,11.43
2023-03-14T10:06:45.323Z,11.48
2023-03-14T10:09:21.599Z,11.48
2023-03-14T10:11:49.514Z,11.40
2023-03-14T10:14:34.114Z,11.35
2023-03-14T10:17:11.946Z,11.29
2023-03-14T10:19:55.260Z,11.32
2023-03-14T10:22:25.328Z,11.30
2023-03-14T10:25:01.317Z,11.23
2023-03-14T10:27:34.588Z,11.24
2023-03-14T10:30:05.248Z,11.24
2023-03-14T10:32:39.644Z,11.20
2023-03-14T10:35:22.143Z,11.16
2023-03-14T10:37:57.998Z,11.12
2023-03-14T10:40:35.780Z,11.20
2023-03-14T10:43:07.161Z,11.17
2023-03-14T10:45:42.124Z,11.17
2023-03-14T10:48:22.438Z,11.15
2023-03-14T10:51:13.138Z,11.12
2023-03-14T10:53:47.253Z,11.08
2023-03-14T10:56:17.935Z,10.96
2023-03-14T10:58:48.255Z,10.95
2023-03-14T11:01:55.141Z,10.86
2023-03-14T11:04:35.008Z,10.78
2023-03-14T11:07:16.677Z,10.60
2023-03-14T11:09:52.824Z,10.40
2023-03-14T11:12:43.844Z,10.13
2023-03-14T11:15:19.315Z,9.91
2023-03-14T11:17:58.860Z,9.72
2023-03-14T11:20:29.580Z,9.56
2023-03-14T11:23:16.346Z,9.55
2023-03-14T11:26:15.867Z,9.54
2023-03-14T11:28:51.459Z,9.52
2023-03-14T11:31:41.381Z,9.50
2023-03-14T11:34:09.095Z,9.50
2023-03-14T11:37:01.471Z,9.45
2023-03-14T11:39:40.009Z,9.51
2023-03-14T11:42:16.085Z,9.53
2023-03-14T11:44:47.570Z,9.49
2023-03-14T11:47:21.235Z,9.35
2023-03-14T11:50:04.200Z,9.24
2023-03-14T11:52:39.710Z,9.13
2023-03-14T11:55:09.933Z,9.03
2023-03-14T11:57:37.944Z,8.94
2023-03-14T12:00:14.853Z,8.83
2023-03-14T12:02:55.891Z,8.79
2023-03-14T12:05:46.494Z,8.80
2023-03-14T12:08:46.654Z,8.72
2023-03-14T12:11:17.572Z,8.62
2023-03-14T12:13:51.278Z,8.45
2023-03-14T12:16:25.103Z,8.31
2023-03-14T12:18:54.336Z,8.14
2023-03-14T12:21:48.734Z,7.93
2023-03-14T12:24:31.081Z,7.73
2023-03-14T12:27:05.179Z,7.58
2023-03-14T12:29:56.470Z,7.49
2023-03-14T12:32:26.801Z,7.41
2023-03-14T12:34:55.312Z,7.33
2023-03-14T12:37:43.665Z,7.27
2023-03-14T12:40:20.035Z,7.22
2023-03-14T12:43:02.912Z,7.19
2023-03-14T12:45:34.212Z,7.15
2023-03-14T12:48:21.716Z,7.14
2023-03-14T12:50:56.861Z,7.12
2023-03-14T12:53:41.943Z,7.14
2023-03-14T12:56:50.456Z,7.19
2023-03-14T12:59:53.738Z,7.28
2023-03-14T13:02:43.834Z,7.42
2023-03-14T13:05:21.337Z,7.55
2023-03-14T13:07:49.165Z,7.70
2023-03-14T13:10:41.740Z,7.87
2023-03-14T13:13:27.913Z,8.06
2023-03-14T13:16:02.371Z,8.22
2023-03-14T13:18:42.347Z,8.38
2023-03-14T13:21:19.962Z,8.49
2023-03-14T13:24:05.729Z,8.64
2023-03-14T13:26:54.461Z,8.80
2023-03-14T13:29:28.383Z,8.93
2023-03-14T13:32:01.803Z,8.96
2023-03-14T13:34:36.474Z,8.96
2023-03-14T13:37:04.218Z,8.91
2023-03-14T13:39:35.057Z,8.83
2023-03-14T13:42:04.090Z,8.46
2023-03-14T13:44:38.544Z,7.93
2023-03-14T13:47:12.136Z,7.76
2023-03-14T13:49:40.590Z,7.53
2023-03-14T13:52:25.019Z,7.45
2023-03-14T13:55:01.241Z,7.49
2023-03-14T13:57:29.050Z,7.54
2023-03-14T14:00:08.994Z,7.66
2023-03-14T14:02:39.491Z,7.81
2023-03-14T14:05:07.769Z,7.98
2023-03-14T14:07:35.894Z,8.19
2023-03-14T14:10:03.819Z,8.41
2023-03-14T14:12:39.367Z,8.57
2023-03-14T14:15:13.645Z,8.64
2023-03-14T14:17:46.510Z,8.67
2023-03-14T14:20:25.570Z,8.73
2023-03-14T14:22:54.044Z,8.77
2023-03-14T14:25:21.913Z,8.79
2023-03-14T14:27:52.312Z,8.78
2023-03-14T14:30:20.035Z,8.75
2023-03-14T14:32:50.120Z,8.80
2023-03-14T14:35:36.589Z,8.88
2023-03-14T14:38:05.276Z,8.88
2023-03-14T14:40:33.674Z,8.89
2023-03-14T14:43:07.159Z,8.85
2023-03-14T14:45:36.967Z,8.87
2023-03-14T14:48:07.523Z,8.83
2023-03-14T14:50:52.611Z,8.79
2023-03-14T14:53:23.112Z,8.72
2023-03-14T14:55:56.857Z,8.65
2023-03-14T14:58:35.485Z,8.58
2023-03-14T15:01:12.891Z,8.57
2023-03-14T15:03:40.749Z,8.58
2023-03-14T15:06:12.429Z,8.63
2023-03-14T15:08:40.169Z,8.63
2023-03-14T15:11:07.923Z,8.59
2023-03-14T15:13:36.109Z,8.58
2023-03-14T15:16:03.846Z,8.57
2023-03-14T15:18:32.894Z,8.52
2023-03-14T15:21:00.672Z,8.45
2023-03-14T15:23:28.378Z,8.41
2023-03-14T15:25:56.696Z,8.41
2023-03-14T15:28:26.892Z,8.44
2023-03-14T15:30:57.137Z,8.47
2023-03-14T15:33:26.233Z,8.53
2023-03-14T15:35:54.486Z,8.57
2023-03-14T15:38:24.813Z,8.58
2023-03-14T15:40:53.735Z,8.51
2023-03-14T15:43:21.925Z,8.55
2023-03-14T15:45:49.670Z,8.47
2023-03-14T15:48:23.391Z,8.40
2023-03-14T15:50:51.368Z,8.37
2023-03-14T15:53:19.628Z,8.35
2023-03-14T15:55:47.419Z,8.31
2023-03-14T15:58:21.495Z,8.33
2023-03-14T16:00:50.648Z,8.36
2023-03-14T16:03:18.987Z,8.30
2023-03-14T16:05:46.620Z,8.29
2023-03-14T16:08:14.445Z,8.31
2023-03-14T16:10:43.289Z,8.34
2023-03-14T16:13:11.052Z,8.34
2023-03-14T16:15:38.771Z,8.38
2023-03-14T16:18:20.650Z,8.37
2023-03-14T16:21:02.862Z,8.38
2023-03-14T16:23:33.055Z,8.40
2023-03-14T16:26:01.042Z,8.40
2023-03-14T16:28:28.932Z,8.44
2023-03-14T16:31:06.325Z,8.49
2023-03-14T16:33:36.128Z,8.57
2023-03-14T16:36:11.818Z,8.63
2023-03-14T16:38:42.317Z,8.71
2023-03-14T16:41:16.397Z,8.73
2023-03-14T16:43:44.444Z,8.72
2023-03-14T16:46:19.309Z,8.69
2023-03-14T16:48:47.367Z,8.69
2023-03-14T16:51:17.485Z,8.64
2023-03-14T16:53:46.732Z,8.57
2023-03-14T16:56:15.893Z,8.48
2023-03-14T16:58:43.829Z,8.44
2023-03-14T17:01:14.535Z,8.42
2023-03-14T17:03:45.546Z,8.38
2023-03-14T17:06:25.039Z,8.35
2023-03-14T17:08:54.029Z,8.35
2023-03-14T17:11:22.152Z,8.36
2023-03-14T17:13:50.032Z,8.36
2023-03-14T17:16:18.255Z,8.35
2023-03-14T17:18:46.354Z,8.33
2023-03-14T17:21:14.088Z,8.33
2023-03-14T17:23:42.217Z,8.34
2023-03-14T17:26:10.462Z,8.34
2023-03-14T17:28:38.330Z,8.35
2023-03-14T17:31:11.829Z,8.36
2023-03-14T17:33:39.874Z,8.34
2023-03-14T17:36:08.632Z,8.31
2023-03-14T17:38:37.244Z,8.28
2023-03-14T17:41:10.252Z,8.20
2023-03-14T17:43:39.093Z,8.15
2023-03-14T17:46:15.454Z,8.09
2023-03-14T17:48:44.548Z,7.96
2023-03-14T17:51:13.768Z,7.88
2023-03-14T17:53:42.266Z,7.80
2023-03-14T17:56:10.957Z,7.71
2023-03-14T17:58:39.043Z,7.55
2023-03-14T18:01:12.275Z,7.47
2023-03-14T18:03:40.442Z,7.38
2023-03-14T18:06:10.225Z,7.23
2023-03-14T18:08:39.510Z,7.10
2023-03-14T18:11:08.294Z,6.94
2023-03-14T18:13:38.297Z,6.83
2023-03-14T18:16:07.245Z,6.75
2023-03-14T18:18:35.177Z,6.65
2023-03-14T18:21:02.934Z,6.56
2023-03-14T18:23:30.738Z,6.49
2023-03-14T18:26:00.565Z,6.41
2023-03-14T18:28:29.997Z,6.37
2023-03-14T18:31:26.363Z,6.35
2023-03-14T18:33:56.806Z,6.26
2023-03-14T18:36:24.850Z,6.23
2023-03-14T18:38:57.563Z,6.21
2023-03-14T18:41:27.058Z,6.21
2023-03-14T18:43:56.070Z,6.22
2023-03-14T18:46:24.864Z,6.22
2023-03-14T18:48:57.460Z,6.22
2023-03-14T18:51:27.122Z,6.22
2023-03-14T18:54:02.825Z,6.18
2023-03-14T18:56:35.950Z,6.18
2023-03-14T18:59:03.615Z,6.17
2023-03-14T19:01:35.309Z,6.13
2023-03-14T19:04:04.463Z,6.12
2023-03-14T19:06:35.565Z,6.10
2023-03-14T19:09:03.883Z,6.07
2023-03-14T19:11:31.635Z,6.02
2023-03-14T19:14:01.070Z,6.02
2023-03-14T19:16:29.152Z,5.99
2023-03-14T19:18:57.050Z,5.95
2023-03-14T19:21:43.017Z,5.89
2023-03-14T19:24:14.258Z,5.85
2023-03-14T19:26:42.037Z,5.81
2023-03-14T19:29:10.936Z,5.71
2023-03-14T19:31:39.232Z,5.63
2023-03-14T19:34:07.068Z,5.56
2023-03-14T19:36:37.358Z,5.50
2023-03-14T19:39:07.352Z,5.46
2023-03-14T19:41:35.591Z,5.42
2023-03-14T19:44:03.646Z,5.38
2023-03-14T19:46:34.102Z,5.39
2023-03-14T19:49:01.892Z,5.31
2023-03-14T19:51:32.187Z,5.31
2023-03-14T19:54:04.423Z,5.30
2023-03-14T19:56:33.574Z,5.25
2023-03-14T19:59:04.297Z,5.20
2023-03-14T20:01:32.684Z,5.04
2023-03-14T20:04:00.521Z,4.96
2023-03-14T20:06:28.258Z,4.87
2023-03-14T20:08:55.977Z,4.79
2023-03-14T20:11:23.834Z,4.73
2023-03-14T20:13:51.614Z,4.68
2023-03-14T20:16:19.397Z,4.65
2023-03-14T20:18:47.469Z,4.56
2023-03-14T20:21:15.451Z,4.51
2023-03-14T20:23:45.191Z,4.40
2023-03-14T20:26:13.044Z,4.31
2023-03-14T20:28:40.808Z,4.18
2023-03-14T20:31:08.878Z,4.09
2023-03-14T20:33:36.754Z,4.01
2023-03-14T20:36:05.115Z,3.97
2023-03-14T20:38:33.180Z,3.90
2023-03-14T20:41:01.839Z,3.91
2023-03-14T20:43:31.335Z,3.90
2023-03-14T20:46:01.180Z,3.87
2023-03-14T20:48:30.354Z,3.88
2023-03-14T20:50:58.691Z,3.90
2023-03-14T20:53:26.636Z,3.91
2023-03-14T20:55:57.364Z,3.93
2023-03-14T20:58:26.435Z,3.95
2023-03-14T21:00:57.147Z,3.98
2023-03-14T21:03:25.914Z,4.01
2023-03-14T21:05:54.121Z,4.03
2023-03-14T21:08:24.327Z,4.08
2023-03-14T21:10:54.627Z,4.11
2023-03-14T21:13:22.972Z,4.14
2023-03-14T21:15:50.870Z,4.18
2023-03-14T21:18:18.674Z,4.23
2023-03-14T21:20:46.559Z,4.25
2023-03-14T21:23:17.835Z,4.26
2023-03-14T21:25:46.568Z,4.30
2023-03-14T21:28:14.710Z,4.32
2023-03-14T21:30:42.660Z,4.34
2023-03-14T21:33:10.400Z,4.35
2023-03-14T21:35:38.314Z,4.35
2023-03-14T21:38:06.375Z,4.38
2023-03-14T21:40:34.335Z,4.43
2023-03-14T21:43:03.181Z,4.47
2023-03-14T21:45:31.067Z,4.52
2023-03-14T21:48:00.117Z,4.56
2023-03-14T21:50:28.309Z,4.60
2023-03-14T21:52:57.830Z,4.68
2023-03-14T21:55:26.590Z,4.67
2023-03-14T21:57:56.206Z,4.67
2023-03-14T22:00:27.199Z,4.70
2023-03-14T22:03:12.159Z,4.71
2023-03-14T22:05:47.186Z,4.68
2023-03-14T22:08:16.564Z,4.69
2023-03-14T22:10:52.308Z,4.67
2023-03-14T22:13:21.362Z,4.67
2023-03-14T22:15:50.327Z,4.67
2023-03-14T22:18:19.367Z,4.68
2023-03-14T22:20:47.358Z,4.71
2023-03-14T22:23:15.479Z,4.72
2023-03-14T22:25:44.458Z,4.74
2023-03-14T22:28:12.390Z,4.74
2023-03-14T22:30:40.366Z,4.72
2023-03-14T22:33:08.383Z,4.71
2023-03-14T22:35:36.409Z,4.67
2023-03-14T22:38:04.138Z,4.64
2023-03-14T22:40:31.831Z,4.58
2023-03-14T22:42:59.586Z,4.57
2023-03-14T22:45:27.365Z,4.55
2023-03-14T22:47:55.441Z,4.52
2023-03-14T22:50:23.261Z,4.47
2023-03-14T22:52:51.013Z,4.44
2023-03-14T22:55:18.827Z,4.42
2023-03-14T22:57:46.868Z,4.40
2023-03-14T23:00:17.985Z,4.41
2023-03-14T23:02:45.821Z,4.39
2023-03-14T23:05:13.994Z,4.38
2023-03-14T23:07:41.959Z,4.37
2023-03-14T23:10:11.352Z,4.38
2023-03-14T23:12:39.133Z,4.33
2023-03-14T23:15:08.470Z,4.38
2023-03-14T23:17:36.717Z,4.37
2023-03-14T23:20:07.611Z,4.39
2023-03-14T23:22:35.369Z,4.38
2023-03-14T23:25:04.910Z,4.39
2023-03-14T23:27:33.216Z,4.42
2023-03-14T23:30:01.080Z,4.39
2023-03-14T23:32:29.066Z,4.39
2023-03-14T23:34:56.795Z,4.39
2023-03-14T23:37:25.808Z,4.34
2023-03-14T23:39:53.609Z,4.31
2023-03-14T23:42:21.599Z,4.25
2023-03-14T23:44:49.310Z,4.19
2023-03-14T23:47:17.307Z,4.17
2023-03-14T23:49:44.995Z,4.11
2023-03-14T23:52:12.799Z,4.05
2023-03-14T23:54:40.507Z,3.94
2023-03-14T23:57:08.499Z,3.83
2023-03-14T23:59:38.847Z,3.73
